地図

経路データ

SID SEASON NUMBER BASIN SUBBASIN NAME ISO_TIME NATURE LAT LON WMO_WIND WMO_PRES WMO_AGENCY TRACK_TYPE DIST2LAND LANDFALL IFLAG USA_AGENCY USA_ATCF_ID USA_LAT USA_LON USA_RECORD USA_STATUS USA_WIND USA_PRES USA_SSHS USA_R34_NE USA_R34_SE USA_R34_SW USA_R34_NW USA_R50_NE USA_R50_SE USA_R50_SW USA_R50_NW USA_R64_NE USA_R64_SE USA_R64_SW USA_R64_NW USA_POCI USA_ROCI USA_RMW USA_EYE TOKYO_LAT TOKYO_LON TOKYO_GRADE TOKYO_WIND TOKYO_PRES TOKYO_R50_DIR TOKYO_R50_LONG TOKYO_R50_SHORT TOKYO_R30_DIR TOKYO_R30_LONG TOKYO_R30_SHORT TOKYO_LAND CMA_LAT CMA_LON CMA_CAT CMA_WIND CMA_PRES HKO_LAT HKO_LON HKO_CAT HKO_WIND HKO_PRES NEWDELHI_LAT NEWDELHI_LON NEWDELHI_GRADE NEWDELHI_WIND NEWDELHI_PRES NEWDELHI_CI NEWDELHI_DP NEWDELHI_POCI REUNION_LAT REUNION_LON REUNION_TYPE REUNION_WIND REUNION_PRES REUNION_TNUM REUNION_CI REUNION_RMW REUNION_R34_NE REUNION_R34_SE REUNION_R34_SW REUNION_R34_NW REUNION_R50_NE REUNION_R50_SE REUNION_R50_SW REUNION_R50_NW REUNION_R64_NE REUNION_R64_SE REUNION_R64_SW REUNION_R64_NW BOM_LAT BOM_LON BOM_TYPE BOM_WIND BOM_PRES BOM_TNUM BOM_CI BOM_RMW BOM_R34_NE BOM_R34_SE BOM_R34_SW BOM_R34_NW BOM_R50_NE BOM_R50_SE BOM_R50_SW BOM_R50_NW BOM_R64_NE BOM_R64_SE BOM_R64_SW BOM_R64_NW BOM_ROCI BOM_POCI BOM_EYE BOM_POS_METHOD BOM_PRES_METHOD NADI_LAT NADI_LON NADI_CAT NADI_WIND NADI_PRES WELLINGTON_LAT WELLINGTON_LON WELLINGTON_WIND WELLINGTON_PRES DS824_LAT DS824_LON DS824_STAGE DS824_WIND DS824_PRES TD9636_LAT TD9636_LON TD9636_STAGE TD9636_WIND TD9636_PRES TD9635_LAT TD9635_LON TD9635_WIND TD9635_PRES TD9635_ROCI NEUMANN_LAT NEUMANN_LON NEUMANN_CLASS NEUMANN_WIND NEUMANN_PRES MLC_LAT MLC_LON MLC_CLASS MLC_WIND MLC_PRES USA_GUST BOM_GUST BOM_GUST_PER REUNION_GUST REUNION_GUST_PER USA_SEAHGT USA_SEARAD_NE USA_SEARAD_SE USA_SEARAD_SW USA_SEARAD_NW STORM_SPEED STORM_DIR
2001227N13323 2001 45 NA NA CHANTAL 2001-08-14 18:00:00 TS 12.8000 -37.0000 25 1010 hurdat_atl main 1786 1741 O_____________ hurdat_atl AL042001 12.8000 -37.0000 TD 25 1010 -1 23 275
2001227N13323 2001 45 NA NA CHANTAL 2001-08-14 21:00:00 TS 12.8910 -38.1496 main 1741 1642 P_____________ AL042001 12.8910 -38.1496 TD 25 1010 -1 22 273
2001227N13323 2001 45 NA NA CHANTAL 2001-08-15 00:00:00 TS 12.9000 -39.3000 25 1010 hurdat_atl main 1633 1530 O_____________ hurdat_atl AL042001 12.9000 -39.3000 TD 25 1010 -1 22 267
2001227N13323 2001 45 NA NA CHANTAL 2001-08-15 03:00:00 TS 12.7795 -40.4503 main 1522 1423 P_____________ AL042001 12.7795 -40.4503 TD 25 1010 -1 23 262
2001227N13323 2001 45 NA NA CHANTAL 2001-08-15 06:00:00 TS 12.6000 -41.6000 25 1010 hurdat_atl main 1415 1310 O_____________ hurdat_atl AL042001 12.6000 -41.6000 TD 25 1010 -1 23 261
2001227N13323 2001 45 NA NA CHANTAL 2001-08-15 09:00:00 TS 12.4269 -42.7427 main 1310 1218 P_____________ AL042001 12.4269 -42.7427 TD 27 1010 -1 23 262
2001227N13323 2001 45 NA NA CHANTAL 2001-08-15 12:00:00 TS 12.3000 -43.9000 30 1010 hurdat_atl main 1210 1133 O_____________ hurdat_atl AL042001 12.3000 -43.9000 TD 30 1010 -1 23 266
2001227N13323 2001 45 NA NA CHANTAL 2001-08-15 15:00:00 TS 12.2695 -45.0848 main 1126 1057 P_____________ AL042001 12.2695 -45.0848 TD 30 1010 -1 23 270
2001227N13323 2001 45 NA NA CHANTAL 2001-08-15 18:00:00 TS 12.3000 -46.3000 30 1010 hurdat_atl main 1051 973 O_____________ hurdat_atl AL042001 12.3000 -46.3000 TD 30 1010 -1 24 272
2001227N13323 2001 45 NA NA CHANTAL 2001-08-15 21:00:00 TS 12.3495 -47.5423 main 973 913 P_____________ AL042001 12.3495 -47.5423 TD 30 1010 -1 24 272
2001227N13323 2001 45 NA NA CHANTAL 2001-08-16 00:00:00 TS 12.4000 -48.8000 30 1010 hurdat_atl main 908 852 O_____________ hurdat_atl AL042001 12.4000 -48.8000 TD 30 1010 -1 24 271
2001227N13323 2001 45 NA NA CHANTAL 2001-08-16 03:00:00 TS 12.3843 -50.0430 main 852 799 P_____________ AL042001 12.3843 -50.0430 TD 30 1010 -1 24 270
2001227N13323 2001 45 NA NA CHANTAL 2001-08-16 06:00:00 TS 12.4000 -51.3000 30 1011 hurdat_atl main 794 762 O_____________ hurdat_atl AL042001 12.4000 -51.3000 TD 30 1011 -1 24 274
2001227N13323 2001 45 NA NA CHANTAL 2001-08-16 09:00:00 TS 12.5487 -52.5397 main 762 756 P_____________ AL042001 12.5487 -52.5397 TD 30 1011 -1 26 277
2001227N13323 2001 45 NA NA CHANTAL 2001-08-16 12:00:00 DS 12.7000 -53.9000 30 1012 hurdat_atl main 762 649 O_____________ hurdat_atl AL042001 12.7000 -53.9000 WV 30 1012 -3 29 273
2001227N13323 2001 45 NA NA CHANTAL 2001-08-16 15:00:00 DS 12.6922 -55.4912 main 639 480 P_____________ AL042001 12.6922 -55.4912 WV 30 1012 -3 32 270
2001227N13323 2001 45 NA NA CHANTAL 2001-08-16 18:00:00 DS 12.7000 -57.2000 30 1012 hurdat_atl main 470 336 O_____________ hurdat_atl AL042001 12.7000 -57.2000 WV 30 1012 -3 34 273
2001227N13323 2001 45 NA NA CHANTAL 2001-08-16 21:00:00 DS 12.8856 -58.9815 main 328 271 P_____________ AL042001 12.8856 -58.9815 WV 32 1011 -3 33 277
2001227N13323 2001 45 NA CS CHANTAL 2001-08-17 00:00:00 DS 13.1000 -60.6000 35 1011 hurdat_atl main 272 268 O_____________ hurdat_atl AL042001 13.1000 -60.6000 WV 35 1011 -3 28 276
2001227N13323 2001 45 NA CS CHANTAL 2001-08-17 03:00:00 DS 13.1985 -61.8203 main 280 279 P_____________ AL042001 13.1985 -61.8203 WV 35 1011 -3 22 275
2001227N13323 2001 45 NA CS CHANTAL 2001-08-17 06:00:00 DS 13.3000 -62.8000 35 1011 hurdat_atl main 291 291 O_____________ hurdat_atl AL042001 13.3000 -62.8000 WV 35 1011 -3 19 279
2001227N13323 2001 45 NA CS CHANTAL 2001-08-17 09:00:00 DS 13.4768 -63.7301 main 320 320 P_____________ AL042001 13.4768 -63.7301 WV 35 1010 -3 18 283
2001227N13323 2001 45 NA CS CHANTAL 2001-08-17 12:00:00 TS 13.7000 -64.6000 35 1010 hurdat_atl main 349 349 O_____________ hurdat_atl AL042001 13.7000 -64.6000 TS 35 1010 0 18 286
2001227N13323 2001 45 NA CS CHANTAL 2001-08-17 15:00:00 TS 13.9647 -65.4998 main 384 381 P_____________ AL042001 13.9647 -65.4998 TS 35 1008 0 18 286
2001227N13323 2001 45 NA CS CHANTAL 2001-08-17 18:00:00 TS 14.2000 -66.4000 35 1006 hurdat_atl main 399 368 O_____________ hurdat_atl AL042001 14.2000 -66.4000 TS 35 1006 0 100 75 100 1014 150 50 18 282
2001227N13323 2001 45 NA CS CHANTAL 2001-08-17 21:00:00 TS 14.3218 -67.2704 main 363 322 P_____________ AL042001 14.3218 -67.2704 TS 40 1005 0 18 277
2001227N13323 2001 45 NA CS CHANTAL 2001-08-18 00:00:00 TS 14.4000 -68.2000 45 1004 hurdat_atl main 316 279 O_____________ hurdat_atl AL042001 14.4000 -68.2000 TS 45 1004 0 19 275
2001227N13323 2001 45 NA CS CHANTAL 2001-08-18 03:00:00 TS 14.4995 -69.2477 main 279 269 P_____________ AL042001 14.4995 -69.2477 TS 50 1003 0 21 275
2001227N13323 2001 45 NA CS CHANTAL 2001-08-18 06:00:00 TS 14.6000 -70.4000 55 1003 hurdat_atl main 273 248 O_____________ hurdat_atl AL042001 14.6000 -70.4000 TS 55 1003 0 23 274
2001227N13323 2001 45 NA CS CHANTAL 2001-08-18 09:00:00 TS 14.6774 -71.6430 main 257 257 P_____________ AL042001 14.6774 -71.6430 TS 52 1004 0 24 275
2001227N13323 2001 45 NA CS CHANTAL 2001-08-18 12:00:00 TS 14.8000 -72.9000 50 1006 hurdat_atl main 296 296 O_____________ hurdat_atl AL042001 14.8000 -72.9000 TS 50 1006 0 24 279
2001227N13323 2001 45 NA CS CHANTAL 2001-08-18 15:00:00 TS 15.0645 -74.0867 main 325 313 P_____________ AL042001 15.0645 -74.0867 TS 50 1004 0 23 283
2001227N13323 2001 45 NA CS CHANTAL 2001-08-18 18:00:00 TS 15.3000 -75.2000 50 1003 hurdat_atl main 309 288 O_____________ hurdat_atl AL042001 15.3000 -75.2000 TS 50 1003 0 125 50 75 1012 150 25 21 277
2001227N13323 2001 45 NA CS CHANTAL 2001-08-18 21:00:00 TS 15.3299 -76.2831 main 285 268 P_____________ AL042001 15.3299 -76.2831 TS 52 1002 0 19 270
2001227N13323 2001 45 NA CS CHANTAL 2001-08-19 00:00:00 TS 15.3000 -77.2000 55 1002 hurdat_atl main 268 268 O_____________ hurdat_atl AL042001 15.3000 -77.2000 TS 55 1002 0 15 270
2001227N13323 2001 45 NA CS CHANTAL 2001-08-19 03:00:00 TS 15.3267 -77.8601 main 278 274 P_____________ AL042001 15.3267 -77.8601 TS 57 999 0 12 275
2001227N13323 2001 45 NA CS CHANTAL 2001-08-19 06:00:00 TS 15.4000 -78.4000 60 997 hurdat_atl main 287 287 O_____________ hurdat_atl AL042001 15.4000 -78.4000 TS 60 997 0 11 280
2001227N13323 2001 45 NA CS CHANTAL 2001-08-19 09:00:00 TS 15.5196 -78.9777 main 302 297 P_____________ AL042001 15.5196 -78.9777 TS 60 1000 0 12 285
2001227N13323 2001 45 NA CS CHANTAL 2001-08-19 12:00:00 TS 15.7000 -79.6000 60 1004 hurdat_atl main 307 307 O_____________ hurdat_atl AL042001 15.7000 -79.6000 TS 60 1004 0 14 288
2001227N13323 2001 45 NA CS CHANTAL 2001-08-19 15:00:00 TS 15.9350 -80.3275 main 316 252 P_____________ AL042001 15.9350 -80.3275 TS 57 1004 0 15 289
2001227N13323 2001 45 NA CS CHANTAL 2001-08-19 18:00:00 TS 16.2000 -81.1000 55 1005 hurdat_atl main 252 209 O_____________ hurdat_atl AL042001 16.2000 -81.1000 TS 55 1005 0 16 290
2001227N13323 2001 45 NA CS CHANTAL 2001-08-19 21:00:00 TS 16.4572 -81.8501 main 209 178 P_____________ AL042001 16.4572 -81.8501 TS 52 1006 0 15 289
2001227N13323 2001 45 NA CS CHANTAL 2001-08-20 00:00:00 TS 16.7000 -82.6000 50 1007 hurdat_atl main 178 162 O_____________ hurdat_atl AL042001 16.7000 -82.6000 TS 50 1007 0 15 287
2001227N13323 2001 45 NA CS CHANTAL 2001-08-20 03:00:00 TS 16.9072 -83.3502 main 156 140 P_____________ AL042001 16.9072 -83.3502 TS 50 1007 0 15 286
2001227N13323 2001 45 NA CS CHANTAL 2001-08-20 06:00:00 TS 17.1000 -84.1000 50 1008 hurdat_atl main 147 140 O_____________ hurdat_atl AL042001 17.1000 -84.1000 TS 50 1008 0 15 285
2001227N13323 2001 45 NA CS CHANTAL 2001-08-20 09:00:00 TS 17.3000 -84.8800 main 156 156 P_____________ AL042001 17.3000 -84.8800 TS 50 1007 0 15 286
2001227N13323 2001 45 NA CS CHANTAL 2001-08-20 12:00:00 TS 17.5000 -85.6000 50 1007 hurdat_atl main 179 178 O_____________ hurdat_atl AL042001 17.5000 -85.6000 TS 50 1007 0 13 288
2001227N13323 2001 45 NA CS CHANTAL 2001-08-20 15:00:00 TS 17.7146 -86.1875 main 178 121 P_____________ AL042001 17.7146 -86.1875 TS 52 1006 0 11 291
2001227N13323 2001 45 NA CS CHANTAL 2001-08-20 18:00:00 TS 17.9000 -86.7000 55 1006 hurdat_atl main 121 57 O_____________ hurdat_atl AL042001 17.9000 -86.7000 TS 55 1006 0 175 150 50 1012 120 90 11 287
2001227N13323 2001 45 NA CS CHANTAL 2001-08-20 21:00:00 TS 18.0363 -87.2879 main 57 15 P_____________ AL042001 18.0363 -87.2879 TS 57 1003 0 10 282
2001227N13323 2001 45 NA CS CHANTAL 2001-08-21 00:00:00 TS 18.1000 -87.7000 60 1000 hurdat_atl main 15 11 O_____________ hurdat_atl AL042001 18.1000 -87.7000 TS 60 1000 0 6 277
2001227N13323 2001 45 NA CS CHANTAL 2001-08-21 02:00:00 TS 18.1000 -87.8000 60 999 hurdat_atl main 11 11 O_____________ hurdat_atl AL042001 18.1000 -87.8000 L TS 60 999 0 3 275
2001227N13323 2001 45 NA CS CHANTAL 2001-08-21 03:00:00 TS 18.1141 -87.8623 main 15 0 P_____________ AL042001 18.1141 -87.8623 TS 58 999 0 5 289
2001227N13323 2001 45 NA CS CHANTAL 2001-08-21 06:00:00 TS 18.2000 -88.1000 55 1000 hurdat_atl main 0 0 O_____________ hurdat_atl AL042001 18.2000 -88.1000 TS 55 1000 0 5 291
2001227N13323 2001 45 NA NA CHANTAL 2001-08-21 09:00:00 TS 18.2954 -88.3722 main 0 0 P_____________ AL042001 18.2954 -88.3722 TS 50 1001 0 6 289
2001227N13323 2001 45 NA NA CHANTAL 2001-08-21 12:00:00 TS 18.4000 -88.7000 45 1002 hurdat_atl main 0 0 O_____________ hurdat_atl AL042001 18.4000 -88.7000 TS 45 1002 0 7 287
2001227N13323 2001 45 NA NA CHANTAL 2001-08-21 15:00:00 TS 18.5075 -89.0850 main 0 0 P_____________ AL042001 18.5075 -89.0850 TS 40 1004 0 8 285
2001227N13323 2001 45 NA NA CHANTAL 2001-08-21 18:00:00 TS 18.6000 -89.5000 35 1006 hurdat_atl main 0 0 O_____________ hurdat_atl AL042001 18.6000 -89.5000 TS 35 1006 0 8 283
2001227N13323 2001 45 NA NA CHANTAL 2001-08-21 21:00:00 TS 18.6874 -89.8924 main 0 0 P_____________ AL042001 18.6874 -89.8924 TS 30 1006 -1 8 278
2001227N13323 2001 45 NA NA CHANTAL 2001-08-22 00:00:00 TS 18.7000 -90.3000 25 1007 hurdat_atl main 0 0 O_____________ hurdat_atl AL042001 18.7000 -90.3000 TD 25 1007 -1 8 263
2001227N13323 2001 45 NA NA CHANTAL 2001-08-22 03:00:00 TS 18.5949 -90.7350 main 0 0 P_____________ AL042001 18.5949 -90.7350 TD 25 1007 -1 9 251
2001227N13323 2001 45 NA NA CHANTAL 2001-08-22 06:00:00 TS 18.4000 -91.2000 25 1008 hurdat_atl main 0 0 O_____________ hurdat_atl AL042001 18.4000 -91.2000 TD 25 1008 -1 10 244
2001227N13323 2001 45 NA NA CHANTAL 2001-08-22 09:00:00 TS 18.1603 -91.6928 main 0 0 P_____________ AL042001 18.1603 -91.6928 TD 25 1008 -1 11 242
2001227N13323 2001 45 NA NA CHANTAL 2001-08-22 12:00:00 TS 17.9000 -92.2000 25 1009 hurdat_atl main 0 O_____________ hurdat_atl AL042001 17.9000 -92.2000 TD 25 1009 -1 1014 100 60 11 242

IBTrACS Databaseについて

本データベースは、米国NOAAが公開する1842年以降の世界の熱帯低気圧のベストトラックデータアーカイブInternational Best Track Archive for Climate Stewardship (IBTrACS)を、ウェブで閲覧しやすい形式に変換したものです。

最終更新日:2021-12-06